sensor_id;sensor_type;location;lat;lon;timestamp;temperature;humidity
70676;DHT22;59069;52.242;20.900;2023-04-12T00:01:38;9.14;82.30
70676;DHT22;59069;52.242;20.900;2023-04-12T00:04:04;9.11;82.21
70676;DHT22;59069;52.242;20.900;2023-04-12T00:06:30;9.04;82.16
70676;DHT22;59069;52.242;20.900;2023-04-12T00:09:00;9.00;82.16
70676;DHT22;59069;52.242;20.900;2023-04-12T00:11:26;8.90;82.18
70676;DHT22;59069;52.242;20.900;2023-04-12T00:13:53;8.86;82.26
70676;DHT22;59069;52.242;20.900;2023-04-12T00:16:20;8.80;82.33
70676;DHT22;59069;52.242;20.900;2023-04-12T00:18:45;8.76;82.41
70676;DHT22;59069;52.242;20.900;2023-04-12T00:21:11;8.75;82.56
70676;DHT22;59069;52.242;20.900;2023-04-12T00:23:37;8.67;82.76
70676;DHT22;59069;52.242;20.900;2023-04-12T00:26:03;8.65;82.86
70676;DHT22;59069;52.242;20.900;2023-04-12T00:28:29;8.63;82.94
70676;DHT22;59069;52.242;20.900;2023-04-12T00:30:55;8.60;82.85
70676;DHT22;59069;52.242;20.900;2023-04-12T00:33:20;8.63;82.85
70676;DHT22;59069;52.242;20.900;2023-04-12T00:35:46;8.62;82.93
70676;DHT22;59069;52.242;20.900;2023-04-12T00:38:11;8.63;82.93
70676;DHT22;59069;52.242;20.900;2023-04-12T00:40:41;8.66;82.81
70676;DHT22;59069;52.242;20.900;2023-04-12T00:43:08;8.67;82.60
70676;DHT22;59069;52.242;20.900;2023-04-12T00:45:35;8.67;82.34
70676;DHT22;59069;52.242;20.900;2023-04-12T00:48:03;8.66;82.28
70676;DHT22;59069;52.242;20.900;2023-04-12T00:50:29;8.65;82.27
70676;DHT22;59069;52.242;20.900;2023-04-12T00:52:56;8.65;82.28
70676;DHT22;59069;52.242;20.900;2023-04-12T00:55:23;8.63;82.34
70676;DHT22;59069;52.242;20.900;2023-04-12T00:57:48;8.65;82.40
70676;DHT22;59069;52.242;20.900;2023-04-12T01:00:16;8.65;82.37
70676;DHT22;59069;52.242;20.900;2023-04-12T01:02:43;8.66;82.33
70676;DHT22;59069;52.242;20.900;2023-04-12T01:05:16;8.66;82.20
70676;DHT22;59069;52.242;20.900;2023-04-12T01:08:20;8.63;82.20
70676;DHT22;59069;52.242;20.900;2023-04-12T01:16:35;8.63;82.19
70676;DHT22;59069;52.242;20.900;2023-04-12T01:19:18;8.66;82.24
70676;DHT22;59069;52.242;20.900;2023-04-12T01:22:10;8.63;82.23
70676;DHT22;59069;52.242;20.900;2023-04-12T01:27:34;8.70;82.25
70676;DHT22;59069;52.242;20.900;2023-04-12T01:30:05;8.70;82.14
70676;DHT22;59069;52.242;20.900;2023-04-12T01:32:33;8.69;82.24
70676;DHT22;59069;52.242;20.900;2023-04-12T01:35:00;8.66;82.28
70676;DHT22;59069;52.242;20.900;2023-04-12T01:37:27;8.65;82.47
70676;DHT22;59069;52.242;20.900;2023-04-12T01:39:53;8.65;82.69
70676;DHT22;59069;52.242;20.900;2023-04-12T01:42:19;8.63;82.88
70676;DHT22;59069;52.242;20.900;2023-04-12T01:44:45;8.65;83.00
70676;DHT22;59069;52.242;20.900;2023-04-12T01:47:11;8.66;83.12
70676;DHT22;59069;52.242;20.900;2023-04-12T01:49:54;8.63;83.26
70676;DHT22;59069;52.242;20.900;2023-04-12T01:52:25;8.63;83.32
70676;DHT22;59069;52.242;20.900;2023-04-12T01:54:57;8.60;83.43
70676;DHT22;59069;52.242;20.900;2023-04-12T01:57:24;8.59;83.57
70676;DHT22;59069;52.242;20.900;2023-04-12T01:59:52;8.59;83.75
70676;DHT22;59069;52.242;20.900;2023-04-12T02:02:19;8.59;83.81
70676;DHT22;59069;52.242;20.900;2023-04-12T02:04:45;8.59;83.83
70676;DHT22;59069;52.242;20.900;2023-04-12T02:07:12;8.63;83.87
70676;DHT22;59069;52.242;20.900;2023-04-12T02:09:39;8.65;83.90
70676;DHT22;59069;52.242;20.900;2023-04-12T02:12:06;8.65;83.92
70676;DHT22;59069;52.242;20.900;2023-04-12T02:14:31;8.67;83.80
70676;DHT22;59069;52.242;20.900;2023-04-12T02:16:57;8.65;83.76
70676;DHT22;59069;52.242;20.900;2023-04-12T02:19:23;8.63;83.74
70676;DHT22;59069;52.242;20.900;2023-04-12T02:21:49;8.67;83.78
70676;DHT22;59069;52.242;20.900;2023-04-12T02:24:15;8.66;83.77
70676;DHT22;59069;52.242;20.900;2023-04-12T02:26:41;8.67;83.78
70676;DHT22;59069;52.242;20.900;2023-04-12T02:29:09;8.66;83.76
70676;DHT22;59069;52.242;20.900;2023-04-12T02:31:35;8.67;83.69
70676;DHT22;59069;52.242;20.900;2023-04-12T02:34:03;8.66;83.67
70676;DHT22;59069;52.242;20.900;2023-04-12T02:36:29;8.70;83.53
70676;DHT22;59069;52.242;20.900;2023-04-12T02:38:54;8.69;83.50
70676;DHT22;59069;52.242;20.900;2023-04-12T02:41:21;8.67;83.45
70676;DHT22;59069;52.242;20.900;2023-04-12T02:43:47;8.66;83.45
70676;DHT22;59069;52.242;20.900;2023-04-12T02:46:21;8.65;83.53
70676;DHT22;59069;52.242;20.900;2023-04-12T02:48:47;8.65;83.66
70676;DHT22;59069;52.242;20.900;2023-04-12T02:51:13;8.66;83.69
70676;DHT22;59069;52.242;20.900;2023-04-12T02:53:38;8.72;83.61
70676;DHT22;59069;52.242;20.900;2023-04-12T02:56:04;8.67;83.54
70676;DHT22;59069;52.242;20.900;2023-04-12T02:58:30;8.70;83.42
70676;DHT22;59069;52.242;20.900;2023-04-12T03:00:58;8.72;83.34
70676;DHT22;59069;52.242;20.900;2023-04-12T03:03:25;8.70;83.26
70676;DHT22;59069;52.242;20.900;2023-04-12T03:05:51;8.70;83.31
70676;DHT22;59069;52.242;20.900;2023-04-12T03:08:17;8.69;83.31
70676;DHT22;59069;52.242;20.900;2023-04-12T03:10:43;8.69;83.27
70676;DHT22;59069;52.242;20.900;2023-04-12T03:13:09;8.69;83.32
70676;DHT22;59069;52.242;20.900;2023-04-12T03:15:35;8.73;83.39
70676;DHT22;59069;52.242;20.900;2023-04-12T03:18:01;8.75;83.33
70676;DHT22;59069;52.242;20.900;2023-04-12T03:20:26;8.76;83.21
70676;DHT22;59069;52.242;20.900;2023-04-12T03:22:53;8.77;83.04
70676;DHT22;59069;52.242;20.900;2023-04-12T03:25:18;8.80;82.98
70676;DHT22;59069;52.242;20.900;2023-04-12T03:27:44;8.81;83.02
70676;DHT22;59069;52.242;20.900;2023-04-12T03:30:10;8.86;83.00
70676;DHT22;59069;52.242;20.900;2023-04-12T03:32:39;8.86;82.96
70676;DHT22;59069;52.242;20.900;2023-04-12T03:35:10;8.86;82.95
70676;DHT22;59069;52.242;20.900;2023-04-12T03:37:36;8.86;82.90
70676;DHT22;59069;52.242;20.900;2023-04-12T03:40:01;8.87;82.88
70676;DHT22;59069;52.242;20.900;2023-04-12T03:42:27;8.88;82.80
70676;DHT22;59069;52.242;20.900;2023-04-12T03:44:53;8.87;82.86
70676;DHT22;59069;52.242;20.900;2023-04-12T03:47:19;8.90;82.80
70676;DHT22;59069;52.242;20.900;2023-04-12T03:49:48;8.90;82.74
70676;DHT22;59069;52.242;20.900;2023-04-12T03:52:13;8.87;82.68
70676;DHT22;59069;52.242;20.900;2023-04-12T03:54:39;8.84;82.74
70676;DHT22;59069;52.242;20.900;2023-04-12T03:57:05;8.80;82.76
70676;DHT22;59069;52.242;20.900;2023-04-12T03:59:31;8.81;82.79
70676;DHT22;59069;52.242;20.900;2023-04-12T04:01:59;8.81;82.85
70676;DHT22;59069;52.242;20.900;2023-04-12T04:04:26;8.83;82.97
70676;DHT22;59069;52.242;20.900;2023-04-12T04:06:52;8.83;82.93
70676;DHT22;59069;52.242;20.900;2023-04-12T04:09:18;8.84;82.89
70676;DHT22;59069;52.242;20.900;2023-04-12T04:11:44;8.81;82.85
70676;DHT22;59069;52.242;20.900;2023-04-12T04:14:09;8.84;82.95
70676;DHT22;59069;52.242;20.900;2023-04-12T04:16:35;8.88;82.94
70676;DHT22;59069;52.242;20.900;2023-04-12T04:19:00;8.90;82.89
70676;DHT22;59069;52.242;20.900;2023-04-12T04:21:26;8.93;82.79
70676;DHT22;59069;52.242;20.900;2023-04-12T04:23:54;8.93;82.76
70676;DHT22;59069;52.242;20.900;2023-04-12T04:26:22;8.93;82.73
70676;DHT22;59069;52.242;20.900;2023-04-12T04:28:58;8.94;82.78
70676;DHT22;59069;52.242;20.900;2023-04-12T04:31:27;8.94;82.62
70676;DHT22;59069;52.242;20.900;2023-04-12T04:33:59;8.93;82.52
70676;DHT22;59069;52.242;20.900;2023-04-12T04:36:25;8.91;82.49
70676;DHT22;59069;52.242;20.900;2023-04-12T04:38:51;8.91;82.54
70676;DHT22;59069;52.242;20.900;2023-04-12T04:41:16;8.93;82.58
70676;DHT22;59069;52.242;20.900;2023-04-12T04:43:46;8.96;82.55
70676;DHT22;59069;52.242;20.900;2023-04-12T04:46:13;8.94;82.50
70676;DHT22;59069;52.242;20.900;2023-04-12T04:48:38;8.97;82.50
70676;DHT22;59069;52.242;20.900;2023-04-12T04:51:05;9.03;82.42
70676;DHT22;59069;52.242;20.900;2023-04-12T04:53:31;9.03;82.41
70676;DHT22;59069;52.242;20.900;2023-04-12T04:55:57;9.08;82.31
70676;DHT22;59069;52.242;20.900;2023-04-12T04:58:23;9.06;82.14
70676;DHT22;59069;52.242;20.900;2023-04-12T05:00:49;9.07;81.99
70676;DHT22;59069;52.242;20.900;2023-04-12T05:03:15;9.08;82.02
70676;DHT22;59069;52.242;20.900;2023-04-12T05:05:40;9.04;81.95
70676;DHT22;59069;52.242;20.900;2023-04-12T05:08:06;9.03;82.01
70676;DHT22;59069;52.242;20.900;2023-04-12T05:10:31;9.04;82.14
70676;DHT22;59069;52.242;20.900;2023-04-12T05:12:57;9.06;82.12
70676;DHT22;59069;52.242;20.900;2023-04-12T05:15:22;9.13;82.07
70676;DHT22;59069;52.242;20.900;2023-04-12T05:17:48;9.18;81.89
70676;DHT22;59069;52.242;20.900;2023-04-12T05:20:13;9.17;81.74
70676;DHT22;59069;52.242;20.900;2023-04-12T05:22:39;9.18;81.66
70676;DHT22;59069;52.242;20.900;2023-04-12T05:25:05;9.18;81.60
70676;DHT22;59069;52.242;20.900;2023-04-12T05:27:30;9.20;81.69
70676;DHT22;59069;52.242;20.900;2023-04-12T05:29:56;9.23;81.65
70676;DHT22;59069;52.242;20.900;2023-04-12T05:32:23;9.30;81.63
70676;DHT22;59069;52.242;20.900;2023-04-12T05:34:48;9.28;81.61
70676;DHT22;59069;52.242;20.900;2023-04-12T05:37:14;9.31;81.34
70676;DHT22;59069;52.242;20.900;2023-04-12T05:39:40;9.34;81.31
70676;DHT22;59069;52.242;20.900;2023-04-12T05:42:05;9.35;81.30
70676;DHT22;59069;52.242;20.900;2023-04-12T05:44:34;9.37;81.12
70676;DHT22;59069;52.242;20.900;2023-04-12T05:47:01;9.39;80.99
70676;DHT22;59069;52.242;20.900;2023-04-12T05:49:30;9.41;80.78
70676;DHT22;59069;52.242;20.900;2023-04-12T05:51:56;9.48;80.82
70676;DHT22;59069;52.242;20.900;2023-04-12T05:54:22;9.51;80.86
70676;DHT22;59069;52.242;20.900;2023-04-12T05:56:50;9.54;80.66
70676;DHT22;59069;52.242;20.900;2023-04-12T05:59:16;9.58;80.48
70676;DHT22;59069;52.242;20.900;2023-04-12T06:01:43;9.65;80.35
70676;DHT22;59069;52.242;20.900;2023-04-12T06:04:09;9.67;80.19
70676;DHT22;59069;52.242;20.900;2023-04-12T06:06:35;9.67;79.91
70676;DHT22;59069;52.242;20.900;2023-04-12T06:09:00;9.59;79.72
70676;DHT22;59069;52.242;20.900;2023-04-12T06:11:27;9.58;79.92
70676;DHT22;59069;52.242;20.900;2023-04-12T06:13:53;9.54;79.98
70676;DHT22;59069;52.242;20.900;2023-04-12T06:16:18;9.51;80.09
70676;DHT22;59069;52.242;20.900;2023-04-12T06:18:44;9.45;80.15
70676;DHT22;59069;52.242;20.900;2023-04-12T06:21:09;9.47;80.34
70676;DHT22;59069;52.242;20.900;2023-04-12T06:23:35;9.51;80.44
70676;DHT22;59069;52.242;20.900;2023-04-12T06:26:01;9.58;80.56
70676;DHT22;59069;52.242;20.900;2023-04-12T06:28:26;9.57;80.15
70676;DHT22;59069;52.242;20.900;2023-04-12T06:30:52;9.57;79.99
70676;DHT22;59069;52.242;20.900;2023-04-12T06:33:18;9.67;79.86
70676;DHT22;59069;52.242;20.900;2023-04-12T06:35:46;9.67;79.49
70676;DHT22;59069;52.242;20.900;2023-04-12T06:38:12;9.65;79.31
70676;DHT22;59069;52.242;20.900;2023-04-12T06:40:37;9.65;79.18
70676;DHT22;59069;52.242;20.900;2023-04-12T06:43:03;9.65;79.16
70676;DHT22;59069;52.242;20.900;2023-04-12T06:45:28;9.65;79.02
70676;DHT22;59069;52.242;20.900;2023-04-12T06:47:54;9.61;78.93
70676;DHT22;59069;52.242;20.900;2023-04-12T06:50:21;9.61;78.78
70676;DHT22;59069;52.242;20.900;2023-04-12T06:52:46;9.52;78.45
70676;DHT22;59069;52.242;20.900;2023-04-12T06:55:16;9.52;78.65
70676;DHT22;59069;52.242;20.900;2023-04-12T06:57:41;9.49;78.61
70676;DHT22;59069;52.242;20.900;2023-04-12T07:00:09;9.48;78.43
70676;DHT22;59069;52.242;20.900;2023-04-12T07:02:35;9.49;78.48
70676;DHT22;59069;52.242;20.900;2023-04-12T07:05:00;9.48;78.56
70676;DHT22;59069;52.242;20.900;2023-04-12T07:07:26;9.52;78.72
70676;DHT22;59069;52.242;20.900;2023-04-12T07:09:51;9.58;78.95
70676;DHT22;59069;52.242;20.900;2023-04-12T07:12:17;9.67;78.92
70676;DHT22;59069;52.242;20.900;2023-04-12T07:14:43;9.69;78.36
70676;DHT22;59069;52.242;20.900;2023-04-12T07:17:08;9.71;78.15
70676;DHT22;59069;52.242;20.900;2023-04-12T07:19:34;9.71;78.09
70676;DHT22;59069;52.242;20.900;2023-04-12T07:22:00;9.72;77.91
70676;DHT22;59069;52.242;20.900;2023-04-12T07:24:25;9.69;77.70
70676;DHT22;59069;52.242;20.900;2023-04-12T07:26:54;9.71;77.59
70676;DHT22;59069;52.242;20.900;2023-04-12T07:29:19;9.69;77.81
70676;DHT22;59069;52.242;20.900;2023-04-12T07:31:45;9.67;77.74
70676;DHT22;59069;52.242;20.900;2023-04-12T07:34:11;9.68;77.72
70676;DHT22;59069;52.242;20.900;2023-04-12T07:36:37;9.71;78.00
70676;DHT22;59069;52.242;20.900;2023-04-12T07:39:02;9.78;78.08
70676;DHT22;59069;52.242;20.900;2023-04-12T07:41:28;9.81;77.90
70676;DHT22;59069;52.242;20.900;2023-04-12T07:43:53;9.83;77.66
70676;DHT22;59069;52.242;20.900;2023-04-12T07:46:19;9.86;77.36
70676;DHT22;59069;52.242;20.900;2023-04-12T07:48:45;9.86;76.92
70676;DHT22;59069;52.242;20.900;2023-04-12T07:51:11;9.82;76.63
70676;DHT22;59069;52.242;20.900;2023-04-12T07:53:36;9.79;76.57
70676;DHT22;59069;52.242;20.900;2023-04-12T07:56:03;9.81;76.78
70676;DHT22;59069;52.242;20.900;2023-04-12T07:58:31;9.79;77.00
70676;DHT22;59069;52.242;20.900;2023-04-12T08:00:57;9.79;77.02
70676;DHT22;59069;52.242;20.900;2023-04-12T08:03:22;9.78;77.00
70676;DHT22;59069;52.242;20.900;2023-04-12T08:05:48;9.77;77.21
70676;DHT22;59069;52.242;20.900;2023-04-12T08:08:18;9.83;77.33
70676;DHT22;59069;52.242;20.900;2023-04-12T08:10:43;9.82;77.31
70676;DHT22;59069;52.242;20.900;2023-04-12T08:13:09;9.83;77.03
70676;DHT22;59069;52.242;20.900;2023-04-12T08:15:35;9.83;77.13
70676;DHT22;59069;52.242;20.900;2023-04-12T08:18:01;9.85;77.06
70676;DHT22;59069;52.242;20.900;2023-04-12T08:20:26;9.85;76.94
70676;DHT22;59069;52.242;20.900;2023-04-12T08:22:52;9.85;77.02
70676;DHT22;59069;52.242;20.900;2023-04-12T08:25:18;9.86;76.96
70676;DHT22;59069;52.242;20.900;2023-04-12T08:27:45;9.89;77.05
70676;DHT22;59069;52.242;20.900;2023-04-12T08:30:11;9.95;77.02
70676;DHT22;59069;52.242;20.900;2023-04-12T08:32:37;9.96;76.82
70676;DHT22;59069;52.242;20.900;2023-04-12T08:35:04;10.02;76.73
70676;DHT22;59069;52.242;20.900;2023-04-12T08:37:29;10.03;76.56
70676;DHT22;59069;52.242;20.900;2023-04-12T08:39:55;10.06;76.60
70676;DHT22;59069;52.242;20.900;2023-04-12T08:42:21;10.09;76.77
70676;DHT22;59069;52.242;20.900;2023-04-12T08:44:46;10.12;76.68
70676;DHT22;59069;52.242;20.900;2023-04-12T08:47:12;10.14;76.59
70676;DHT22;59069;52.242;20.900;2023-04-12T08:49:37;10.23;76.36
70676;DHT22;59069;52.242;20.900;2023-04-12T08:52:05;10.28;76.42
70676;DHT22;59069;52.242;20.900;2023-04-12T08:54:32;10.32;76.59
70676;DHT22;59069;52.242;20.900;2023-04-12T08:57:00;10.41;76.54
70676;DHT22;59069;52.242;20.900;2023-04-12T08:59:27;10.49;76.41
70676;DHT22;59069;52.242;20.900;2023-04-12T09:01:53;10.59;76.09
70676;DHT22;59069;52.242;20.900;2023-04-12T09:04:19;10.70;75.63
70676;DHT22;59069;52.242;20.900;2023-04-12T09:06:45;10.77;75.43
70676;DHT22;59069;52.242;20.900;2023-04-12T09:09:10;10.84;75.24
70676;DHT22;59069;52.242;20.900;2023-04-12T09:11:35;10.95;74.98
70676;DHT22;59069;52.242;20.900;2023-04-12T09:14:01;11.07;74.62
70676;DHT22;59069;52.242;20.900;2023-04-12T09:16:37;11.21;74.00
70676;DHT22;59069;52.242;20.900;2023-04-12T09:19:03;11.32;73.57
70676;DHT22;59069;52.242;20.900;2023-04-12T09:21:28;11.42;72.85
70676;DHT22;59069;52.242;20.900;2023-04-12T09:24:08;11.44;71.83
70676;DHT22;59069;52.242;20.900;2023-04-12T09:26:36;11.42;71.45
70676;DHT22;59069;52.242;20.900;2023-04-12T09:29:02;11.44;71.68
70676;DHT22;59069;52.242;20.900;2023-04-12T09:31:28;11.59;72.63
70676;DHT22;59069;52.242;20.900;2023-04-12T09:34:14;11.83;73.40
70676;DHT22;59069;52.242;20.900;2023-04-12T09:36:41;12.01;72.19
70676;DHT22;59069;52.242;20.900;2023-04-12T09:39:07;12.17;70.62
70676;DHT22;59069;52.242;20.900;2023-04-12T09:41:33;12.27;69.68
70676;DHT22;59069;52.242;20.900;2023-04-12T09:43:59;12.34;69.22
70676;DHT22;59069;52.242;20.900;2023-04-12T09:46:25;12.40;68.08
70676;DHT22;59069;52.242;20.900;2023-04-12T09:48:52;12.38;67.61
70676;DHT22;59069;52.242;20.900;2023-04-12T09:51:25;12.38;67.18
70676;DHT22;59069;52.242;20.900;2023-04-12T09:53:54;12.34;66.91
70676;DHT22;59069;52.242;20.900;2023-04-12T09:56:24;12.35;67.29
70676;DHT22;59069;52.242;20.900;2023-04-12T09:58:52;12.35;67.43
70676;DHT22;59069;52.242;20.900;2023-04-12T10:01:19;12.38;67.87
70676;DHT22;59069;52.242;20.900;2023-04-12T10:03:45;12.49;67.57
70676;DHT22;59069;52.242;20.900;2023-04-12T10:06:12;12.55;67.60
70676;DHT22;59069;52.242;20.900;2023-04-12T10:08:39;12.63;66.93
70676;DHT22;59069;52.242;20.900;2023-04-12T10:11:05;12.69;66.60
70676;DHT22;59069;52.242;20.900;2023-04-12T10:13:31;12.72;65.98
70676;DHT22;59069;52.242;20.900;2023-04-12T10:15:59;12.78;65.94
70676;DHT22;59069;52.242;20.900;2023-04-12T10:18:25;12.78;65.88
70676;DHT22;59069;52.242;20.900;2023-04-12T10:20:51;12.82;65.78
70676;DHT22;59069;52.242;20.900;2023-04-12T10:23:17;12.91;65.62
70676;DHT22;59069;52.242;20.900;2023-04-12T10:25:45;12.99;65.06
70676;DHT22;59069;52.242;20.900;2023-04-12T10:28:17;13.24;65.55
70676;DHT22;59069;52.242;20.900;2023-04-12T10:30:44;13.48;66.10
70676;DHT22;59069;52.242;20.900;2023-04-12T10:33:12;13.81;66.00
70676;DHT22;59069;52.242;20.900;2023-04-12T10:35:48;13.92;61.75
70676;DHT22;59069;52.242;20.900;2023-04-12T10:38:14;13.98;60.85
70676;DHT22;59069;52.242;20.900;2023-04-12T10:43:30;14.11;60.10
70676;DHT22;59069;52.242;20.900;2023-04-12T10:45:56;14.24;61.10
70676;DHT22;59069;52.242;20.900;2023-04-12T10:48:36;14.36;60.83
70676;DHT22;59069;52.242;20.900;2023-04-12T10:51:18;14.66;61.70
70676;DHT22;59069;52.242;20.900;2023-04-12T10:56:45;15.39;58.97
70676;DHT22;59069;52.242;20.900;2023-04-12T10:59:12;15.51;56.25
70676;DHT22;59069;52.242;20.900;2023-04-12T11:01:38;15.55;54.54
70676;DHT22;59069;52.242;20.900;2023-04-12T11:04:14;15.54;54.33
70676;DHT22;59069;52.242;20.900;2023-04-12T11:11:47;14.97;55.52
70676;DHT22;59069;52.242;20.900;2023-04-12T11:14:16;14.88;56.49
70676;DHT22;59069;52.242;20.900;2023-04-12T11:19:33;15.78;55.79
70676;DHT22;59069;52.242;20.900;2023-04-12T11:22:08;16.72;67.21
70676;DHT22;59069;52.242;20.900;2023-04-12T11:24:54;18.08;57.55
70676;DHT22;59069;52.242;20.900;2023-04-12T11:27:22;18.63;48.00
70676;DHT22;59069;52.242;20.900;2023-04-12T11:29:52;18.96;45.95
70676;DHT22;59069;52.242;20.900;2023-04-12T11:32:21;18.85;44.36
70676;DHT22;59069;52.242;20.900;2023-04-12T11:34:47;18.47;44.41
70676;DHT22;59069;52.242;20.900;2023-04-12T11:37:13;17.96;45.56
70676;DHT22;59069;52.242;20.900;2023-04-12T11:39:41;17.54;47.04
70676;DHT22;59069;52.242;20.900;2023-04-12T11:42:22;17.25;48.64
70676;DHT22;59069;52.242;20.900;2023-04-12T11:44:48;16.94;48.50
70676;DHT22;59069;52.242;20.900;2023-04-12T11:47:16;16.72;49.63
70676;DHT22;59069;52.242;20.900;2023-04-12T11:49:50;17.38;55.19
70676;DHT22;59069;52.242;20.900;2023-04-12T11:52:17;17.40;47.88
70676;DHT22;59069;52.242;20.900;2023-04-12T11:54:48;17.46;49.16
70676;DHT22;59069;52.242;20.900;2023-04-12T11:57:18;18.10;53.33
70676;DHT22;59069;52.242;20.900;2023-04-12T11:59:47;18.81;48.85
70676;DHT22;59069;52.242;20.900;2023-04-12T12:02:14;19.37;47.15
70676;DHT22;59069;52.242;20.900;2023-04-12T12:04:45;20.12;47.81
70676;DHT22;59069;52.242;20.900;2023-04-12T12:07:12;21.05;45.87
70676;DHT22;59069;52.242;20.900;2023-04-12T12:09:39;21.74;41.60
70676;DHT22;59069;52.242;20.900;2023-04-12T12:12:06;22.26;40.57
70676;DHT22;59069;52.242;20.900;2023-04-12T12:14:33;22.64;37.14
70676;DHT22;59069;52.242;20.900;2023-04-12T12:17:00;22.83;38.48
70676;DHT22;59069;52.242;20.900;2023-04-12T12:19:28;22.24;34.82
70676;DHT22;59069;52.242;20.900;2023-04-12T12:22:10;22.50;39.37
70676;DHT22;59069;52.242;20.900;2023-04-12T12:24:50;22.14;35.33
70676;DHT22;59069;52.242;20.900;2023-04-12T12:27:32;21.30;36.53
70676;DHT22;59069;52.242;20.900;2023-04-12T12:29:59;22.29;44.39
70676;DHT22;59069;52.242;20.900;2023-04-12T12:32:36;23.57;38.21
70676;DHT22;59069;52.242;20.900;2023-04-12T12:35:07;24.20;35.76
70676;DHT22;59069;52.242;20.900;2023-04-12T12:37:33;25.36;35.40
70676;DHT22;59069;52.242;20.900;2023-04-12T12:42:53;28.06;30.44
70676;DHT22;59069;52.242;20.900;2023-04-12T12:45:26;29.25;27.92
70676;DHT22;59069;52.242;20.900;2023-04-12T12:50:22;29.31;23.55
70676;DHT22;59069;52.242;20.900;2023-04-12T12:52:49;29.14;28.55
70676;DHT22;59069;52.242;20.900;2023-04-12T12:55:16;29.56;26.53
70676;DHT22;59069;52.242;20.900;2023-04-12T12:57:42;29.97;26.14
70676;DHT22;59069;52.242;20.900;2023-04-12T13:00:10;30.60;25.25
70676;DHT22;59069;52.242;20.900;2023-04-12T13:02:38;31.36;23.78
70676;DHT22;59069;52.242;20.900;2023-04-12T13:05:04;31.39;23.53
70676;DHT22;59069;52.242;20.900;2023-04-12T13:07:30;30.02;22.52
70676;DHT22;59069;52.242;20.900;2023-04-12T13:09:55;28.98;25.90
70676;DHT22;59069;52.242;20.900;2023-04-12T13:12:21;27.08;25.58
70676;DHT22;59069;52.242;20.900;2023-04-12T13:14:47;25.95;30.78
70676;DHT22;59069;52.242;20.900;2023-04-12T13:17:13;26.38;30.89
70676;DHT22;59069;52.242;20.900;2023-04-12T13:19:39;26.43;30.10
70676;DHT22;59069;52.242;20.900;2023-04-12T13:22:05;27.77;30.44
70676;DHT22;59069;52.242;20.900;2023-04-12T13:24:35;28.97;28.06
70676;DHT22;59069;52.242;20.900;2023-04-12T13:27:00;29.24;26.55
70676;DHT22;59069;52.242;20.900;2023-04-12T13:29:27;30.24;26.15
70676;DHT22;59069;52.242;20.900;2023-04-12T13:31:52;30.38;23.42
70676;DHT22;59069;52.242;20.900;2023-04-12T13:34:18;30.10;24.32
70676;DHT22;59069;52.242;20.900;2023-04-12T13:36:43;30.71;25.34
70676;DHT22;59069;52.242;20.900;2023-04-12T13:39:08;30.47;23.51
70676;DHT22;59069;52.242;20.900;2023-04-12T13:41:34;30.25;25.03
70676;DHT22;59069;52.242;20.900;2023-04-12T13:44:00;31.11;25.25
70676;DHT22;59069;52.242;20.900;2023-04-12T13:46:26;31.62;23.48
70676;DHT22;59069;52.242;20.900;2023-04-12T13:48:51;31.49;21.86
70676;DHT22;59069;52.242;20.900;2023-04-12T13:51:16;29.70;22.30
70676;DHT22;59069;52.242;20.900;2023-04-12T13:53:43;27.82;24.31
70676;DHT22;59069;52.242;20.900;2023-04-12T13:56:08;26.14;26.60
70676;DHT22;59069;52.242;20.900;2023-04-12T13:58:35;24.65;28.74
70676;DHT22;59069;52.242;20.900;2023-04-12T14:01:04;23.32;30.53
70676;DHT22;59069;52.242;20.900;2023-04-12T14:03:30;22.16;32.61
70676;DHT22;59069;52.242;20.900;2023-04-12T14:05:55;21.30;34.88
70676;DHT22;59069;52.242;20.900;2023-04-12T14:08:21;22.00;39.35
70676;DHT22;59069;52.242;20.900;2023-04-12T14:10:47;21.69;34.32
70676;DHT22;59069;52.242;20.900;2023-04-12T14:13:12;20.98;35.01
70676;DHT22;59069;52.242;20.900;2023-04-12T14:15:38;20.32;36.48
70676;DHT22;59069;52.242;20.900;2023-04-12T14:18:03;19.74;38.04
70676;DHT22;59069;52.242;20.900;2023-04-12T14:20:29;19.24;38.84
70676;DHT22;59069;52.242;20.900;2023-04-12T14:22:54;18.86;39.78
70676;DHT22;59069;52.242;20.900;2023-04-12T14:25:21;18.44;40.49
70676;DHT22;59069;52.242;20.900;2023-04-12T14:27:46;17.97;41.52
70676;DHT22;59069;52.242;20.900;2023-04-12T14:30:12;17.65;42.40
70676;DHT22;59069;52.242;20.900;2023-04-12T14:32:37;17.38;43.49
70676;DHT22;59069;52.242;20.900;2023-04-12T14:35:03;17.07;44.65
70676;DHT22;59069;52.242;20.900;2023-04-12T14:37:30;16.95;45.44
70676;DHT22;59069;52.242;20.900;2023-04-12T14:39:57;17.35;46.47
70676;DHT22;59069;52.242;20.900;2023-04-12T14:42:22;18.81;49.27
70676;DHT22;59069;52.242;20.900;2023-04-12T14:44:48;18.95;42.47
70676;DHT22;59069;52.242;20.900;2023-04-12T14:47:13;18.69;41.70
70676;DHT22;59069;52.242;20.900;2023-04-12T14:49:39;18.51;42.25
70676;DHT22;59069;52.242;20.900;2023-04-12T14:52:05;18.14;43.63
70676;DHT22;59069;52.242;20.900;2023-04-12T14:54:31;18.24;44.87
70676;DHT22;59069;52.242;20.900;2023-04-12T14:56:56;17.98;43.21
70676;DHT22;59069;52.242;20.900;2023-04-12T14:59:22;17.76;43.80
70676;DHT22;59069;52.242;20.900;2023-04-12T15:01:48;18.37;46.73
70676;DHT22;59069;52.242;20.900;2023-04-12T15:04:13;19.10;44.26
70676;DHT22;59069;52.242;20.900;2023-04-12T15:06:39;20.62;43.78
70676;DHT22;59069;52.242;20.900;2023-04-12T15:09:09;22.26;39.64
70676;DHT22;59069;52.242;20.900;2023-04-12T15:11:34;23.57;36.03
70676;DHT22;59069;52.242;20.900;2023-04-12T15:14:01;24.44;34.23
70676;DHT22;59069;52.242;20.900;2023-04-12T15:16:29;25.10;32.10
70676;DHT22;59069;52.242;20.900;2023-04-12T15:18:54;25.59;31.26
70676;DHT22;59069;52.242;20.900;2023-04-12T15:21:20;25.92;30.86
70676;DHT22;59069;52.242;20.900;2023-04-12T15:23:47;26.21;30.04
70676;DHT22;59069;52.242;20.900;2023-04-12T15:26:12;26.31;29.26
70676;DHT22;59069;52.242;20.900;2023-04-12T15:28:38;26.52;29.61
70676;DHT22;59069;52.242;20.900;2023-04-12T15:31:04;26.72;29.24
70676;DHT22;59069;52.242;20.900;2023-04-12T15:33:29;26.87;28.79
70676;DHT22;59069;52.242;20.900;2023-04-12T15:35:59;26.96;28.27
70676;DHT22;59069;52.242;20.900;2023-04-12T15:38:25;27.03;28.16
70676;DHT22;59069;52.242;20.900;2023-04-12T15:40:55;26.87;28.19
70676;DHT22;59069;52.242;20.900;2023-04-12T15:43:22;26.52;28.54
70676;DHT22;59069;52.242;20.900;2023-04-12T15:45:47;26.31;28.77
70676;DHT22;59069;52.242;20.900;2023-04-12T15:48:17;26.09;29.22
70676;DHT22;59069;52.242;20.900;2023-04-12T15:50:42;25.88;29.31
70676;DHT22;59069;52.242;20.900;2023-04-12T15:53:08;25.73;29.66